Time;durP1;ratioP1;P1;durP2;ratioP2;P2;SDS_P1;SDS_P2;PMS_P1;PMS_P2;Temp;Humidity;BMP_temperature;BMP_pressure;BME280_temperature;BME280_humidity;BME280_pressure;Samples;Min_cycle;Max_cycle;Signal;HPM_P1;HPM_P2
2022/06/14 00:04:59;;;;;;;;;;;15.80;99.90;;;14.78;65.24;96133.78;10480590;28;1855;-72
2022/06/14 00:10:03;;;;;;;;;;;15.80;99.90;;;14.77;65.67;96136.78;10473338;28;1849;-73
2022/06/14 00:15:06;;;;;;;;;;;15.60;99.90;;;14.75;67.38;96138.94;10484343;28;1985;-73
2022/06/14 00:20:08;;;;;;;;;;;15.70;99.90;;;14.78;66.49;96141.09;10478059;28;1874;-73
2022/06/14 00:25:11;;;;;;;;;;;15.70;99.90;;;14.75;66.80;96134.34;10469094;28;1758;-74
2022/06/14 00:30:14;;;;;;;;;;;15.70;99.90;;;14.63;68.62;96146.69;10474274;28;1806;-73
2022/06/14 00:35:17;;;;;;;;;;;15.60;99.90;;;14.57;67.82;96138.66;10468345;28;1993;-73
2022/06/14 00:40:20;;;;;;;;;;;15.50;99.90;;;14.47;69.30;96130.66;10470658;28;1899;-72
2022/06/14 00:45:23;;;;;;;;;;;15.50;99.90;;;14.35;71.23;96135.63;10461612;28;2055;-74
2022/06/14 00:50:26;;;;;;;;;;;15.30;99.90;;;14.21;71.19;96134.72;10475591;28;2019;-72
2022/06/14 00:55:29;;;;;;;;;;;15.30;99.90;;;14.20;72.90;96127.72;10470528;28;2024;-71
2022/06/14 01:00:31;;;;;;;;;;;15.10;99.90;;;14.18;71.63;96137.97;10472953;28;1962;-72
2022/06/14 01:06:05;;;;;;;;;;;15.10;99.90;;;14.18;74.15;96133.38;10473116;28;1874;-71
2022/06/14 01:10:58;;;;;;;;;;;15.10;99.90;;;14.28;73.24;96132.47;10466035;28;1906;-72
2022/06/14 01:16:01;;;;;;;;;;;15.20;99.90;;;14.31;72.45;96127.31;10471759;28;1866;-72
2022/06/14 01:21:04;;;;;;;;;;;15.20;99.90;;;14.19;72.63;96126.91;10471507;28;1886;-72
2022/06/14 01:26:08;;;;;;;;;;;15.20;99.90;;;14.17;70.77;96122.84;10471357;28;2023;-72
2022/06/14 01:31:14;;;;;;;;;;;15.10;99.90;;;14.18;72.10;96119.84;10471325;28;1914;-72
2022/06/14 01:36:18;;;;;;;;;;;15.00;99.90;;;14.07;73.88;96116.47;10482923;28;1874;-73
2022/06/14 01:41:20;;;;;;;;;;;15.10;99.90;;;13.95;75.80;96116.06;10477711;28;1837;-72
2022/06/14 01:46:23;;;;;;;;;;;15.00;99.90;;;13.87;76.74;96114.00;10477446;28;1985;-72
2022/06/14 01:56:47;;;;;;;;;;;14.80;99.90;;;13.71;77.26;96109.81;10476440;28;1953;-73
2022/06/14 02:01:50;;;;;;;;;;;14.70;99.90;;;13.72;77.09;96116.84;10477600;28;1986;-72
2022/06/14 02:06:53;;;;;;;;;;;14.70;99.90;;;13.68;78.17;96113.91;10473482;28;1966;-72
2022/06/14 02:11:56;;;;;;;;;;;14.70;99.90;;;13.63;78.51;96107.75;10477338;28;1977;-71
2022/06/14 02:16:59;;;;;;;;;;;14.60;99.90;;;13.48;80.24;96112.19;10477157;28;1858;-73
2022/06/14 02:22:02;;;;;;;;;;;14.50;99.90;;;13.43;81.37;96109.53;10479268;28;1939;-72
2022/06/14 02:27:06;;;;;;;;;;;14.50;99.90;;;13.36;83.03;96109.06;10476537;28;2126;-72
2022/06/14 02:32:09;;;;;;;;;;;14.40;99.90;;;13.27;85.08;96110.75;10476696;28;1914;-72
2022/06/14 02:37:12;;;;;;;;;;;14.30;99.90;;;13.37;82.43;96105.28;10478174;28;1855;-74
2022/06/14 02:42:15;;;;;;;;;;;14.30;99.90;;;13.28;84.83;96106.16;10484046;28;2003;-72
2022/06/14 02:47:18;;;;;;;;;;;14.30;99.90;;;13.24;86.13;96095.94;10473967;28;2017;-73
2022/06/14 02:52:21;;;;;;;;;;;14.30;99.90;;;13.11;87.75;96101.13;10476088;28;1906;-72
2022/06/14 02:57:24;;;;;;;;;;;14.20;99.90;;;13.03;89.09;96107.91;10477398;28;1704;-73
2022/06/14 03:02:27;;;;;;;;;;;14.10;99.90;;;13.08;90.69;96107.09;10485074;28;2024;-72
2022/06/14 03:07:30;;;;;;;;;;;14.00;99.90;;;12.87;91.45;96115.31;10474782;28;1904;-73
2022/06/14 03:12:33;;;;;;;;;;;13.90;99.90;;;12.63;92.21;96104.41;10468990;28;1978;-72
2022/06/14 03:17:37;;;;;;;;;;;13.70;99.90;;;12.58;93.68;96106.31;10468259;28;1998;-73
2022/06/14 03:22:40;;;;;;;;;;;13.60;99.90;;;12.60;95.75;96114.94;10472761;28;1875;-72
2022/06/14 03:27:42;;;;;;;;;;;13.60;99.90;;;12.59;95.62;96111.41;10473805;28;1940;-72
2022/06/14 03:32:45;;;;;;;;;;;13.50;99.90;;;12.75;97.37;96114.84;10471196;28;2048;-71
2022/06/14 03:37:48;;;;;;;;;;;13.60;99.90;;;13.08;95.74;96112.47;10504280;28;1463;-71
2022/06/14 03:42:51;;;;;;;;;;;13.80;99.90;;;13.41;92.91;96109.00;10475942;28;1563;-72
2022/06/14 03:47:54;;;;;;;;;;;14.00;99.90;;;13.78;91.36;96110.28;10472718;28;1894;-72
2022/06/14 03:52:57;;;;;;;;;;;14.40;99.90;;;14.00;88.38;96107.91;10471493;28;1976;-74
2022/06/14 03:58:01;;;;;;;;;;;14.70;99.90;;;14.24;87.06;96117.91;10470724;28;1939;-72
2022/06/14 04:03:04;;;;;;;;;;;14.90;99.90;;;14.58;85.78;96113.19;10466947;28;2033;-73
2022/06/14 04:08:06;;;;;;;;;;;15.10;99.90;;;14.67;82.71;96115.25;10463812;28;1991;-70
2022/06/14 04:13:09;;;;;;;;;;;15.30;99.90;;;14.96;82.65;96121.34;10468892;28;1922;-71
2022/06/14 04:23:29;;;;;;;;;;;15.70;99.90;;;15.37;76.36;96107.19;10468639;28;1950;-72
2022/06/14 04:28:32;;;;;;;;;;;15.80;99.90;;;15.47;70.29;96111.63;10470553;28;1950;-73
2022/06/14 04:33:35;;;;;;;;;;;16.10;99.90;;;15.58;70.99;96100.31;10471627;28;2052;-73
2022/06/14 04:38:38;;;;;;;;;;;16.20;99.90;;;15.81;69.68;96108.63;10467137;28;1998;-71
2022/06/14 04:43:41;;;;;;;;;;;16.40;99.90;;;16.01;63.86;96105.53;10464846;28;1880;-73
2022/06/14 04:48:45;;;;;;;;;;;16.70;99.90;;;16.28;63.60;96109.38;10469574;28;1960;-73
2022/06/14 04:53:48;;;;;;;;;;;16.80;99.90;;;16.25;63.76;96118.13;10460599;28;1910;-74
2022/06/14 04:58:50;;;;;;;;;;;17.00;99.90;;;16.54;60.98;96124.06;10466492;28;1836;-73
2022/06/14 05:03:54;;;;;;;;;;;17.20;99.90;;;16.39;60.24;96117.00;10468369;28;1826;-73
2022/06/14 05:08:57;;;;;;;;;;;17.20;99.90;;;16.74;59.41;96114.72;10472109;28;1744;-74
2022/06/14 05:14:00;;;;;;;;;;;17.40;99.90;;;16.59;59.61;96113.06;10485530;28;1973;-74
2022/06/14 05:19:03;;;;;;;;;;;17.50;99.90;;;17.08;58.54;96106.06;10477703;28;1880;-73
2022/06/14 05:24:06;;;;;;;;;;;17.60;99.90;;;17.07;56.50;96104.47;10477543;28;1862;-73
2022/06/14 05:29:09;;;;;;;;;;;17.80;99.90;;;17.37;56.31;96113.81;10480296;28;1943;-73
2022/06/14 05:34:12;;;;;;;;;;;17.90;99.90;;;17.51;55.97;96108.31;10477465;28;1910;-74
2022/06/14 05:39:15;;;;;;;;;;;18.20;99.90;;;17.87;54.73;96121.03;10472875;28;1869;-72
2022/06/14 05:44:18;;;;;;;;;;;18.40;99.90;;;17.40;53.70;96117.81;10473906;28;1780;-73
2022/06/14 05:49:21;;;;;;;;;;;18.40;99.90;;;18.14;52.15;96118.16;10478789;28;1865;-71
2022/06/14 05:54:24;;;;;;;;;;;18.70;99.90;;;18.35;51.56;96115.66;10473875;28;1922;-72
2022/06/14 05:59:31;;;;;;;;;;;18.90;99.90;;;18.88;51.40;96120.16;10475358;28;1800;-72
2022/06/14 06:04:35;;;;;;;;;;;19.40;99.90;;;18.90;48.45;96129.63;10472171;28;1846;-71
2022/06/14 06:09:38;;;;;;;;;;;19.60;99.90;;;19.29;48.41;96130.63;10479352;28;1789;-71
2022/06/14 06:14:42;;;;;;;;;;;19.80;99.90;;;19.64;47.02;96125.16;10476393;28;1918;-71
2022/06/14 06:19:45;;;;;;;;;;;20.20;99.90;;;20.00;46.13;96126.72;10474910;28;1790;-72
2022/06/14 06:24:48;;;;;;;;;;;20.40;99.90;;;20.31;43.49;96123.72;10469572;28;2015;-72
2022/06/14 06:29:52;;;;;;;;;;;20.80;99.90;;;20.32;42.70;96117.94;10470371;28;1858;-71
2022/06/14 06:34:55;;;;;;;;;;;21.00;99.90;;;20.26;40.26;96124.69;10475064;28;1982;-72
2022/06/14 06:39:58;;;;;;;;;;;20.90;99.90;;;20.64;40.78;96126.66;10474556;28;1887;-71
2022/06/14 06:45:02;;;;;;;;;;;21.10;99.90;;;19.82;39.92;96126.75;10470316;28;1796;-70
2022/06/14 06:50:05;;;;;;;;;;;21.00;99.90;;;19.34;41.06;96121.47;10474430;28;1935;-71
2022/06/14 06:55:08;;;;;;;;;;;20.40;99.90;;;19.53;41.58;96115.69;10469207;28;1985;-71
2022/06/14 07:00:11;;;;;;;;;;;20.40;99.90;;;19.52;43.60;96116.81;10472969;28;1812;-73
2022/06/14 07:05:15;;;;;;;;;;;20.20;99.90;;;20.12;41.67;96113.19;10466707;28;1725;-72
2022/06/14 07:10:18;;;;;;;;;;;20.60;99.90;;;20.31;42.91;96116.34;10470222;28;1792;-72
2022/06/14 07:15:24;;;;;;;;;;;20.90;99.90;;;20.67;41.37;96118.59;10473904;28;2062;-71
2022/06/14 07:20:28;;;;;;;;;;;21.30;99.90;;;20.49;40.93;96114.38;10474663;28;1856;-72
2022/06/14 07:25:31;;;;;;;;;;;21.30;99.90;;;21.19;40.64;96120.22;10474381;28;2145;-71
2022/06/14 07:30:34;;;;;;;;;;;21.50;99.90;;;21.58;39.08;96122.50;10468990;28;1919;-72
2022/06/14 07:35:36;;;;;;;;;;;22.10;99.90;;;21.04;39.65;96125.13;10467402;28;1973;-71
2022/06/14 07:40:39;;;;;;;;;;;22.00;99.90;;;21.68;39.65;96112.25;10470737;28;2754;-72
2022/06/14 07:45:43;;;;;;;;;;;22.10;99.90;;;21.53;41.35;96114.47;10469537;28;1818;-72
2022/06/14 07:50:46;;;;;;;;;;;22.10;99.90;;;21.28;38.68;96107.25;10488580;28;1858;-71
2022/06/14 07:55:49;;;;;;;;;;;22.30;99.80;;;21.48;38.29;96101.00;10467362;28;1926;-72
2022/06/14 08:01:09;;;;;;;;;;;22.20;99.20;;;21.09;37.71;96099.53;10471668;28;1875;-71
2022/06/14 08:06:12;;;;;;;;;;;22.30;97.60;;;21.24;40.00;96100.84;10469311;28;1814;-70
2022/06/14 08:11:15;;;;;;;;;;;21.90;99.90;;;20.86;38.39;96103.69;10486401;28;1877;-72
2022/06/14 08:16:18;;;;;;;;;;;21.90;98.50;;;20.38;40.18;96102.19;10469029;28;1918;-70
2022/06/14 08:21:21;;;;;;;;;;;21.60;98.70;;;21.17;40.48;96108.78;10472024;28;1868;-71
2022/06/14 08:26:24;;;;;;;;;;;21.70;99.90;;;21.50;38.44;96106.97;10467807;28;2343;-72
2022/06/14 08:31:28;;;;;;;;;;;22.20;98.30;;;21.66;39.70;96112.59;10467952;28;1888;-73
2022/06/14 08:36:32;;;;;;;;;;;22.40;99.80;;;22.64;37.76;96102.63;10467043;28;1990;-71
2022/06/14 08:41:35;;;;;;;;;;;22.90;99.90;;;21.32;38.64;96102.78;10468593;28;1868;-72
2022/06/14 08:46:37;;;;;;;;;;;22.60;96.60;;;21.86;38.99;96100.00;10481081;28;1774;-72
2022/06/14 08:51:40;;;;;;;;;;;22.70;98.10;;;21.55;39.91;96095.78;10479179;28;1917;-72
2022/06/14 08:56:43;;;;;;;;;;;22.50;98.60;;;21.27;40.29;96105.66;10477586;28;1910;-71
2022/06/14 09:01:46;;;;;;;;;;;22.40;98.50;;;21.40;41.30;96103.81;10475724;28;1853;-72
2022/06/14 09:06:50;;;;;;;;;;;22.40;99.90;;;21.94;42.19;96095.56;10477929;28;1959;-72
2022/06/14 09:11:53;;;;;;;;;;;22.50;99.90;;;21.85;40.73;96090.19;10476197;28;1813;-72
2022/06/14 09:16:56;;;;;;;;;;;22.70;99.90;;;21.93;40.36;96093.97;10478518;28;1975;-71
2022/06/14 09:21:59;;;;;;;;;;;22.80;99.00;;;21.74;39.40;96099.97;10471641;28;1903;-72
2022/06/14 09:27:03;;;;;;;;;;;22.70;98.20;;;20.98;40.34;96092.84;10477099;28;2296;-73
2022/06/14 09:32:06;;;;;;;;;;;22.50;97.10;;;21.49;39.42;96088.13;10475130;28;1804;-72
2022/06/14 09:37:15;;;;;;;;;;;22.40;97.40;;;21.37;39.16;96094.34;10473681;28;1984;-72
2022/06/14 09:42:18;;;;;;;;;;;22.60;96.50;;;21.15;39.33;96083.72;10492678;28;1843;-73
2022/06/14 09:47:21;;;;;;;;;;;22.40;96.20;;;21.15;39.16;96086.47;10475583;28;1849;-71
2022/06/14 09:52:24;;;;;;;;;;;22.20;96.30;;;21.09;38.56;96093.25;10477661;28;1883;-72
2022/06/14 09:57:27;;;;;;;;;;;22.20;95.80;;;21.55;39.71;96084.06;10475076;28;1973;-73
2022/06/14 10:02:30;;;;;;;;;;;22.30;97.40;;;21.61;37.34;96087.38;10472189;28;1857;-72
2022/06/14 10:07:33;;;;;;;;;;;22.50;95.00;;;21.56;38.70;96086.44;10478488;28;1868;-72
2022/06/14 10:12:36;;;;;;;;;;;22.70;95.30;;;21.54;38.54;96080.53;10495731;28;1858;-74
2022/06/14 10:17:39;;;;;;;;;;;22.60;95.40;;;21.11;38.02;96072.66;10492180;28;1979;-73
2022/06/14 10:22:42;;;;;;;;;;;22.30;94.20;;;21.77;38.88;96074.69;10499612;28;1853;-73
2022/06/14 10:33:17;;;;;;;;;;;;;;;22.42;40.11;96062.00;10425233;28;2018;-72
2022/06/14 10:38:20;;;;;;;;;;;23.40;97.80;;;23.33;34.66;96072.63;10482753;28;1833;-72
2022/06/14 10:43:23;;;;;;;;;;;23.90;93.00;;;23.82;33.92;96072.44;10470231;28;1864;-73
2022/06/14 10:48:39;;;;;;;;;;;25.10;93.50;;;24.09;34.28;96065.28;10471545;28;1849;-74
2022/06/14 10:53:42;;;;;;;;;;;26.20;99.90;;;23.41;34.65;96057.94;10475655;28;1981;-73
2022/06/14 10:58:45;;;;;;;;;;;25.70;90.40;;;23.88;33.32;96058.09;10473272;28;1936;-71
2022/06/14 11:03:48;;;;;;;;;;;26.00;87.50;;;23.77;33.10;96058.97;10471190;28;1807;-70
2022/06/14 11:08:51;;;;;;;;;;;26.30;84.90;;;24.22;32.30;96053.88;10468249;28;1790;-71
2022/06/14 11:13:53;;;;;;;;;;;26.30;84.90;;;24.84;33.65;96045.13;10458458;28;1888;-70
2022/06/14 11:18:56;;;;;;;;;;;27.00;86.40;;;24.65;33.08;96041.19;10467160;28;1809;-71
2022/06/14 11:23:59;;;;;;;;;;;27.30;86.00;;;24.00;32.94;96041.56;10471700;28;1777;-71
2022/06/14 11:29:02;;;;;;;;;;;26.60;83.70;;;23.35;33.39;96037.41;10464253;28;1976;-71
2022/06/14 11:34:06;;;;;;;;;;;25.60;83.50;;;22.88;35.94;96044.28;10469787;28;1991;-69
2022/06/14 11:39:10;;;;;;;;;;;24.80;86.20;;;22.04;37.10;96041.19;10470456;28;1939;-72
2022/06/14 11:44:12;;;;;;;;;;;23.80;87.50;;;21.83;37.62;96033.06;10473099;28;1818;-70
2022/06/14 11:49:16;;;;;;;;;;;23.10;88.90;;;22.42;37.01;96031.88;10470130;28;2238;-69
2022/06/14 11:54:20;;;;;;;;;;;23.30;89.70;;;22.10;36.68;96019.91;10486686;28;1949;-71
2022/06/14 11:59:22;;;;;;;;;;;23.30;88.10;;;22.79;35.19;96013.47;10473494;28;2076;-70
2022/06/14 12:04:26;;;;;;;;;;;23.60;88.10;;;22.55;35.54;96017.03;10465702;28;1848;-70
2022/06/14 12:09:29;;;;;;;;;;;23.70;87.20;;;22.75;36.28;96009.00;10466689;28;1786;-69
2022/06/14 12:14:32;;;;;;;;;;;23.60;88.50;;;22.74;35.98;96007.41;10466177;28;2001;-70
2022/06/14 12:19:36;;;;;;;;;;;23.80;87.90;;;22.61;36.06;96004.69;10463552;28;1913;-69
2022/06/14 12:29:59;;;;;;;;;;;23.50;88.70;;;22.56;36.36;95996.72;10467192;28;1822;-71
2022/06/14 12:35:03;;;;;;;;;;;23.50;88.60;;;22.76;36.01;96005.13;10467119;28;1914;-71
2022/06/14 12:40:06;;;;;;;;;;;23.70;88.10;;;22.89;36.69;95991.06;10468570;28;1808;-69
2022/06/14 12:45:14;;;;;;;;;;;23.90;88.30;;;22.62;36.19;96005.50;10465244;28;2011;-70
2022/06/14 12:50:17;;;;;;;;;;;23.80;87.40;;;22.83;35.55;95989.69;10478702;28;1896;-70
2022/06/14 12:55:20;;;;;;;;;;;23.90;87.40;;;22.92;36.15;95986.84;10471789;28;1918;-71
2022/06/14 13:00:23;;;;;;;;;;;23.90;87.80;;;23.26;34.12;95981.91;10469379;28;1997;-70
2022/06/14 13:05:26;;;;;;;;;;;24.00;86.30;;;23.35;34.93;95975.13;10467093;28;1850;-69
2022/06/14 13:10:29;;;;;;;;;;;24.30;86.60;;;23.43;33.42;95970.63;10465111;28;1859;-69
2022/06/14 13:15:33;;;;;;;;;;;24.40;84.90;;;23.52;33.97;95971.25;10467608;28;1978;-71
2022/06/14 13:20:36;;;;;;;;;;;24.30;85.30;;;23.74;33.50;95964.41;10468820;28;1803;-71
2022/06/14 13:25:40;;;;;;;;;;;24.50;85.00;;;23.66;33.12;95963.41;10462747;28;1845;-72
2022/06/14 13:30:43;;;;;;;;;;;24.80;84.30;;;23.82;34.02;95951.66;10468057;28;1842;-72
2022/06/14 13:35:47;;;;;;;;;;;24.60;85.30;;;23.26;33.73;95957.22;10475697;28;1990;-71
2022/06/14 13:40:50;;;;;;;;;;;24.40;83.90;;;23.63;33.29;95950.41;10468935;28;1799;-70
2022/06/14 13:45:54;;;;;;;;;;;24.50;83.90;;;23.30;33.94;95955.38;10473882;28;1793;-72
2022/06/14 13:50:57;;;;;;;;;;;24.30;83.70;;;23.61;32.97;95943.66;10476392;28;1849;-71
2022/06/14 13:55:59;;;;;;;;;;;24.50;83.90;;;23.87;32.20;95943.16;10469567;28;1912;-72
2022/06/14 14:01:02;;;;;;;;;;;24.70;82.80;;;23.84;31.74;95939.16;10467583;28;1842;-72
2022/06/14 14:06:05;;;;;;;;;;;24.80;82.10;;;24.11;31.64;95934.72;10474728;28;1856;-71
2022/06/14 14:11:08;;;;;;;;;;;25.00;82.80;;;23.93;31.94;95936.25;10464296;28;1981;-73
2022/06/14 14:16:11;;;;;;;;;;;25.20;81.20;;;23.67;32.84;95934.03;10468367;28;1907;-71
2022/06/14 14:21:14;;;;;;;;;;;24.90;81.70;;;23.46;32.85;95934.25;10473128;28;1840;-72
2022/06/14 14:26:16;;;;;;;;;;;24.60;82.20;;;23.85;32.71;95918.00;10469418;28;2279;-72
2022/06/14 14:31:19;;;;;;;;;;;24.70;82.50;;;23.79;32.48;95908.44;10483150;28;1843;-72
2022/06/14 14:36:22;;;;;;;;;;;24.80;81.70;;;23.71;31.78;95912.97;10470643;28;1922;-73
2022/06/14 14:41:37;;;;;;;;;;;24.80;81.00;;;23.92;31.76;95907.19;10468887;28;2088;-72
2022/06/14 14:46:39;;;;;;;;;;;24.90;80.80;;;23.84;31.50;95908.16;10476324;28;1614;-73
2022/06/14 14:51:44;;;;;;;;;;;25.00;79.60;;;23.88;31.48;95900.84;10474140;28;1838;-72
2022/06/14 14:56:47;;;;;;;;;;;25.00;79.70;;;24.14;31.31;95898.31;10482057;28;1906;-72
2022/06/14 15:07:12;;;;;;;;;;;25.30;78.50;;;24.39;29.73;95881.63;10473109;28;1822;-73
2022/06/14 15:12:15;;;;;;;;;;;25.40;77.70;;;24.51;30.00;95882.28;10462988;28;1794;-72
2022/06/14 15:22:39;;;;;;;;;;;25.10;77.80;;;24.19;29.58;95867.81;10459711;28;1764;-71
2022/06/14 15:27:42;;;;;;;;;;;25.00;77.50;;;24.11;30.07;95871.56;10470209;28;2333;-72
2022/06/14 15:32:44;;;;;;;;;;;25.10;77.20;;;24.51;29.04;95867.75;10473293;28;2184;-72
2022/06/14 15:37:47;;;;;;;;;;;25.20;76.60;;;24.08;30.17;95863.25;10477456;28;1975;-71
2022/06/14 15:42:50;;;;;;;;;;;25.30;76.80;;;24.15;30.18;95844.97;10466277;28;1476;-72
2022/06/14 15:47:54;;;;;;;;;;;25.20;77.20;;;24.16;29.97;95851.25;10475374;28;1870;-73
2022/06/14 15:52:57;;;;;;;;;;;25.10;77.20;;;24.00;30.69;95859.53;10472381;28;1883;-71
2022/06/14 15:58:00;;;;;;;;;;;24.90;77.70;;;24.21;30.40;95854.50;10479207;28;1927;-72
2022/06/14 16:03:02;;;;;;;;;;;24.80;77.90;;;23.86;30.80;95854.53;10472002;28;1768;-72
2022/06/14 16:08:05;;;;;;;;;;;25.00;77.30;;;23.62;30.60;95850.03;10478714;28;2203;-72
2022/06/14 16:13:08;;;;;;;;;;;24.70;77.10;;;23.60;31.24;95852.31;10468406;28;1824;-72
2022/06/14 16:18:12;;;;;;;;;;;24.50;77.80;;;23.31;31.55;95841.78;10468006;28;1993;-72
2022/06/14 16:23:15;;;;;;;;;;;24.40;77.90;;;23.32;31.88;95840.63;10470261;28;1805;-71
2022/06/14 16:28:18;;;;;;;;;;;24.20;78.40;;;23.22;33.25;95838.41;10467978;28;1828;-72
2022/06/14 16:33:21;;;;;;;;;;;24.20;79.70;;;22.62;33.11;95841.09;10466618;28;1871;-73
2022/06/14 16:38:24;;;;;;;;;;;23.80;79.30;;;22.59;33.89;95839.09;10470672;28;1930;-71
2022/06/14 16:43:27;;;;;;;;;;;23.60;80.30;;;22.35;34.31;95838.03;10468102;28;1634;-73
2022/06/14 16:48:30;;;;;;;;;;;23.30;81.10;;;22.21;33.78;95836.81;10466930;28;1883;-71
2022/06/14 16:53:34;;;;;;;;;;;23.10;80.20;;;22.18;34.33;95834.75;10470258;28;1934;-71
2022/06/14 16:58:37;;;;;;;;;;;23.10;81.30;;;22.07;34.59;95828.94;10463886;28;2065;-71
2022/06/14 17:03:42;;;;;;;;;;;23.00;81.20;;;22.01;34.42;95825.66;10466621;28;1865;-72
2022/06/14 17:08:45;;;;;;;;;;;22.90;81.20;;;21.99;34.65;95840.81;10473472;28;1785;-72
2022/06/14 17:13:49;;;;;;;;;;;22.80;81.70;;;21.85;35.40;95838.44;10475885;28;1767;-72
2022/06/14 17:18:52;;;;;;;;;;;22.60;82.00;;;21.64;35.33;95837.78;10482475;28;1918;-73
2022/06/14 17:23:55;;;;;;;;;;;22.50;81.90;;;21.61;36.59;95846.66;10485506;28;1972;-73
2022/06/14 17:34:19;;;;;;;;;;;22.30;83.60;;;21.49;37.00;95831.84;10478373;28;1764;-73
2022/06/14 17:39:22;;;;;;;;;;;22.30;83.90;;;21.41;37.02;95832.75;10473689;28;1918;-73
2022/06/14 17:44:25;;;;;;;;;;;22.30;84.30;;;21.17;37.52;95832.72;10471641;28;1849;-74
2022/06/14 17:49:29;;;;;;;;;;;22.10;84.30;;;21.15;37.41;95818.59;10483323;28;1870;-74
2022/06/14 17:54:31;;;;;;;;;;;21.90;84.50;;;21.02;37.51;95826.78;10479031;28;1946;-76
2022/06/14 17:59:34;;;;;;;;;;;21.90;84.60;;;20.99;38.18;95832.94;10474044;28;1966;-75
2022/06/14 18:04:37;;;;;;;;;;;21.80;85.40;;;20.87;38.64;95827.44;10479656;28;1877;-75
2022/06/14 18:09:41;;;;;;;;;;;21.70;85.70;;;20.77;38.17;95836.03;10475928;28;1843;-73
2022/06/14 18:14:46;;;;;;;;;;;21.60;85.20;;;20.69;38.51;95826.00;10469845;28;1794;-74
2022/06/14 18:25:09;;;;;;;;;;;21.50;85.40;;;20.60;38.42;95830.75;10474499;28;1798;-74
2022/06/14 18:30:13;;;;;;;;;;;21.40;85.50;;;20.48;38.36;95835.03;10479903;28;1885;-73
2022/06/14 18:35:16;;;;;;;;;;;21.30;85.50;;;20.45;38.39;95835.72;10473031;28;1985;-74
2022/06/14 18:40:19;;;;;;;;;;;21.30;85.50;;;20.28;39.35;95830.34;10474652;28;1942;-74
2022/06/14 18:45:25;;;;;;;;;;;21.10;86.10;;;20.13;39.97;95841.88;10473011;28;1796;-75
2022/06/14 18:50:28;;;;;;;;;;;21.00;86.70;;;20.06;40.18;95833.44;10467845;28;1806;-74
2022/06/14 18:55:41;;;;;;;;;;;20.90;87.90;;;20.00;40.98;95832.84;10472023;28;2032;-73
2022/06/14 19:00:45;;;;;;;;;;;20.80;87.70;;;19.92;41.70;95839.16;10489174;28;1830;-74
2022/06/14 19:05:49;;;;;;;;;;;20.80;88.60;;;19.82;42.65;95839.53;10476884;28;1784;-74
2022/06/14 19:10:54;;;;;;;;;;;20.70;89.90;;;19.70;43.96;95842.97;10471763;28;1869;-72
2022/06/14 19:15:58;;;;;;;;;;;20.60;91.10;;;19.55;45.23;95838.88;10468951;28;2001;-72
2022/06/14 19:21:01;;;;;;;;;;;20.50;92.60;;;19.35;46.47;95837.69;10471241;28;1904;-73
2022/06/14 19:26:04;;;;;;;;;;;20.30;93.80;;;19.29;47.16;95840.94;10472436;28;1827;-72
2022/06/14 19:31:07;;;;;;;;;;;20.10;94.80;;;19.19;47.99;95833.91;10470643;28;1955;-72
2022/06/14 19:36:12;;;;;;;;;;;20.00;95.70;;;19.10;48.96;95838.59;10473875;28;1906;-72
2022/06/14 19:41:15;;;;;;;;;;;20.00;96.80;;;18.87;49.80;95844.25;10471920;28;1869;-72
2022/06/14 19:46:18;;;;;;;;;;;19.80;97.50;;;18.63;50.93;95852.94;10469334;28;1772;-72
2022/06/14 19:51:23;;;;;;;;;;;19.60;98.30;;;18.39;52.65;95849.13;10472254;28;1783;-72
2022/06/14 19:56:26;;;;;;;;;;;19.40;99.00;;;18.39;53.08;95862.75;10467788;28;1906;-72
2022/06/14 20:01:28;;;;;;;;;;;19.30;99.90;;;18.44;53.32;95865.28;10482459;28;1818;-72
2022/06/14 20:06:32;;;;;;;;;;;19.30;99.90;;;18.34;53.91;95863.69;10483428;28;1740;-72
2022/06/14 20:11:35;;;;;;;;;;;19.20;99.90;;;18.11;54.90;95860.31;10472252;28;1859;-72
2022/06/14 20:16:38;;;;;;;;;;;19.10;99.90;;;18.01;56.14;95866.88;10469343;28;1983;-72
2022/06/14 20:21:40;;;;;;;;;;;19.00;99.90;;;17.91;56.54;95871.81;10470147;28;1883;-72
2022/06/14 20:26:49;;;;;;;;;;;18.90;99.90;;;17.75;57.44;95869.56;10469900;28;1831;-72
2022/06/14 20:31:52;;;;;;;;;;;18.80;99.90;;;17.69;57.63;95868.09;10473118;28;1748;-71
2022/06/14 20:36:56;;;;;;;;;;;18.60;99.90;;;17.68;57.65;95871.09;10471834;28;2001;-71
2022/06/14 20:42:00;;;;;;;;;;;18.50;99.90;;;17.50;57.66;95867.56;10471337;28;1878;-71
2022/06/14 20:47:03;;;;;;;;;;;18.50;99.90;;;17.70;57.10;95866.97;10481120;28;1840;-72
2022/06/14 20:52:06;;;;;;;;;;;18.50;99.90;;;17.43;57.77;95867.19;10476837;28;1956;-72
2022/06/14 20:57:09;;;;;;;;;;;18.50;99.90;;;17.42;57.67;95871.03;10472867;28;2005;-72
2022/06/14 21:02:13;;;;;;;;;;;18.30;99.90;;;17.51;57.81;95869.16;10479250;28;1804;-70
2022/06/14 21:07:15;;;;;;;;;;;18.30;99.90;;;17.59;57.39;95868.38;10472779;28;1825;-71
2022/06/14 21:12:18;;;;;;;;;;;18.30;99.90;;;17.36;57.47;95867.66;10477517;28;1809;-71
2022/06/14 21:17:22;;;;;;;;;;;18.30;99.90;;;17.34;57.67;95863.66;10476835;28;1910;-71
2022/06/14 21:22:26;;;;;;;;;;;18.20;99.90;;;17.34;57.38;95872.59;10478310;28;1887;-71
2022/06/14 21:27:29;;;;;;;;;;;18.30;99.90;;;17.24;58.86;95870.97;10476447;28;1853;-72
2022/06/14 21:32:31;;;;;;;;;;;18.20;99.90;;;17.21;58.28;95871.59;10473208;28;1860;-72
2022/06/14 21:37:34;;;;;;;;;;;18.10;99.90;;;17.19;58.21;95873.84;10477064;28;1991;-71
2022/06/14 21:42:37;;;;;;;;;;;18.10;99.90;;;16.93;59.43;95867.47;10475931;28;1910;-72
2022/06/14 21:47:41;;;;;;;;;;;17.90;99.90;;;16.91;60.10;95870.47;10483655;28;2239;-72
2022/06/14 21:52:44;;;;;;;;;;;17.80;99.90;;;17.07;58.65;95876.34;10478222;28;1854;-72
2022/06/14 21:57:47;;;;;;;;;;;17.90;99.90;;;16.93;59.08;95867.47;10476324;28;1910;-71
2022/06/14 22:02:51;;;;;;;;;;;17.90;99.90;;;16.97;58.87;95863.00;10473703;28;1875;-72
2022/06/14 22:07:54;;;;;;;;;;;17.80;99.90;;;16.69;59.87;95860.44;10487377;28;1923;-72
2022/06/14 22:12:57;;;;;;;;;;;17.60;99.90;;;16.50;60.36;95862.56;10468389;28;1800;-71
2022/06/14 22:18:00;;;;;;;;;;;17.50;99.90;;;16.49;61.52;95860.94;10473191;28;1993;-71
2022/06/14 22:23:03;;;;;;;;;;;17.40;99.90;;;16.26;62.64;95868.28;10474209;28;1808;-71
2022/06/14 22:28:06;;;;;;;;;;;17.20;99.90;;;16.19;63.28;95857.84;10472778;28;1877;-70
2022/06/14 22:33:09;;;;;;;;;;;17.20;99.90;;;16.21;64.56;95852.91;10468832;28;1895;-71
2022/06/14 22:38:13;;;;;;;;;;;17.10;99.90;;;16.12;64.16;95852.06;10470387;28;2036;-71
2022/06/14 22:43:16;;;;;;;;;;;17.00;99.90;;;16.39;63.53;95851.13;10472529;28;1858;-71
2022/06/14 22:48:18;;;;;;;;;;;17.20;99.90;;;16.47;63.91;95846.88;10473099;28;1818;-70
2022/06/14 22:53:21;;;;;;;;;;;17.30;99.90;;;16.56;63.60;95858.59;10474127;28;1782;-71
2022/06/14 22:58:24;;;;;;;;;;;17.30;99.90;;;16.93;62.82;95857.41;10473984;28;1989;-71
2022/06/14 23:03:27;;;;;;;;;;;17.40;99.90;;;16.53;64.37;95840.22;10469098;28;1764;-70
2022/06/14 23:08:31;;;;;;;;;;;17.30;99.90;;;16.59;63.67;95844.41;10476289;28;1833;-70
2022/06/14 23:13:34;;;;;;;;;;;17.40;99.90;;;17.09;62.05;95840.69;10475869;28;1904;-72
2022/06/14 23:18:37;;;;;;;;;;;17.40;99.90;;;16.95;62.35;95841.59;10472488;28;1910;-72
2022/06/14 23:23:40;;;;;;;;;;;17.50;99.90;;;16.48;65.12;95837.66;10469346;28;1790;-71
2022/06/14 23:28:43;;;;;;;;;;;17.40;99.90;;;16.36;65.31;95837.41;10471639;28;1830;-71
2022/06/14 23:33:47;;;;;;;;;;;17.30;99.90;;;15.97;68.09;95829.91;10465040;28;1851;-71
2022/06/14 23:38:50;;;;;;;;;;;17.00;99.90;;;15.95;68.64;95825.59;10472224;28;1918;-70
2022/06/14 23:43:53;;;;;;;;;;;17.00;99.90;;;16.66;65.66;95828.47;10471556;28;1840;-72
2022/06/14 23:48:56;;;;;;;;;;;17.00;99.90;;;16.26;67.51;95824.88;10474322;28;1862;-70
2022/06/14 23:53:59;;;;;;;;;;;17.10;99.90;;;16.40;67.36;95820.19;10467753;28;1834;-72
2022/06/14 23:59:01;;;;;;;;;;;17.00;99.90;;;16.03;68.42;95815.94;10467071;28;1902;-72
